WESTPORT MEDIA Westport In The Media

Enter your "Place, State", US Zip Code or ICAO:  

Cozumel Civ / Mil, Mexico

 Lat: 20.53N, Lon: 86.93W
ICAO Used: MMCZ
Current Conditions
Updated: 3:45 PM GMT-6 FRI AUG 29 2014
Sun & Moon Information
Partly Cloudy
Partly Cloudy
Temp: 28°C
Humidity: 78%
Wind Speed: SE 12 MPH
Barometer: 1012 mb
Dewpoint: 24°C
Heat Index: 31°C
Wind Chill: 28°C
Civil Twilight: 5:08 AM GMT-6 Moon Phase:
Waxing Crescent Moon
Sunrise: 5:30 AM GMT-6
Sunset: 6:05 PM GMT-6
Civil Twilight: 6:27 PM GMT-6
Forecast for Cozumel Civ / Mil, Mexico:
(Forecast based on TAF for )
0900 PM GMT-6 THU AUG 28 2014
  
OVERNIGHT MORNING AFTERNOON EVENING OVERNIGHT
Partly
Cloudy
Partly
Cloudy
Mostly
Cloudy
Mostly
Cloudy
Mostly
Cloudy
ZoneCast:
Dated: 0900 PM GMT-6 THU AUG 28 2014
Overnight...Turning partly cloudy with winds from the southeast at 14 mph.

Morning...Partly cloudy with winds from the southeast at 14 mph. Turning mostly cloudy with winds from the southeast at 23 mph.

Afternoon...Mostly cloudy with winds from the southeast at 23 mph.

Evening...Mostly cloudy with winds from the southeast at 23 mph.

Overnight...Mostly cloudy with winds from the southeast at 23 mph.

Original Encoded TAF:
Dated: 0900 PM GMT-6 THU AUG 28 2014
TAF MMCZ 291707Z 2918/3024 14010G20KT P6SM SCT015 BKN250 
     FM300300 12012KT P6SM SCT020 
     FM301500 12020KT P6SM BKN015